Time;durP1;ratioP1;P1;durP2;ratioP2;P2;SDS_P1;SDS_P2;PMS_P1;PMS_P2;Temp;Humidity;BMP_temperature;BMP_pressure;BME280_temperature;BME280_humidity;BME280_pressure;Samples;Min_cycle;Max_cycle;Signal;HPM_P1;HPM_P2
2021/09/04 00:02:05;;;;;;;51.45;19.40;;;;;;;;;;5034690;28;20455;-86
2021/09/04 00:04:30;;;;;;;46.47;18.15;;;;;;;;;;5017414;28;20029;-86
2021/09/04 00:06:56;;;;;;;42.30;19.42;;;;;;;;;;5018032;28;20116;-86
2021/09/04 00:09:21;;;;;;;48.58;19.95;;;;;;;;;;5035703;28;20029;-87
2021/09/04 00:11:46;;;;;;;48.03;20.08;;;;;;;;;;5017822;28;20485;-87
2021/09/04 00:14:12;;;;;;;53.70;18.50;;;;;;;;;;5035200;28;20373;-87
2021/09/04 00:16:37;;;;;;;46.58;18.98;;;;;;;;;;5017503;28;20025;-87
2021/09/04 00:19:02;;;;;;;51.95;19.58;;;;;;;;;;5017341;28;20037;-86
2021/09/04 00:21:28;;;;;;;46.63;18.98;;;;;;;;;;5017715;28;20037;-86
2021/09/04 00:23:53;;;;;;;50.83;20.95;;;;;;;;;;5017186;28;20018;-86
2021/09/04 00:26:22;;;;;;;57.33;21.23;;;;;;;;;;5034183;28;20021;-87
2021/09/04 00:28:47;;;;;;;51.97;20.52;;;;;;;;;;5018473;28;20038;-86
2021/09/04 00:31:13;;;;;;;58.92;20.65;;;;;;;;;;5018051;28;20029;-87
2021/09/04 00:33:38;;;;;;;50.97;20.67;;;;;;;;;;5017836;28;20048;-86
2021/09/04 00:36:03;;;;;;;50.33;21.23;;;;;;;;;;5035763;28;20105;-86
2021/09/04 00:38:29;;;;;;;53.85;19.60;;;;;;;;;;5017887;28;20116;-86
2021/09/04 00:40:54;;;;;;;55.28;19.40;;;;;;;;;;5018021;28;20029;-87
2021/09/04 00:43:19;;;;;;;56.05;22.40;;;;;;;;;;5035967;28;20055;-85
2021/09/04 00:45:45;;;;;;;54.30;20.40;;;;;;;;;;5020564;28;20025;-87
2021/09/04 00:48:10;;;;;;;56.00;20.63;;;;;;;;;;5020905;28;20026;-86
2021/09/04 00:50:36;;;;;;;53.65;21.73;;;;;;;;;;5020541;28;20377;-87
2021/09/04 00:53:03;;;;;;;55.10;21.17;;;;;;;;;;5021533;28;20499;-87
2021/09/04 00:55:29;;;;;;;54.35;22.40;;;;;;;;;;5024439;28;20132;-88
2021/09/04 00:57:54;;;;;;;51.30;20.83;;;;;;;;;;5022225;28;20056;-87
2021/09/04 01:00:20;;;;;;;63.13;22.08;;;;;;;;;;5021288;28;20503;-87
2021/09/04 01:02:46;;;;;;;61.42;23.65;;;;;;;;;;5038769;28;20049;-87
2021/09/04 01:05:11;;;;;;;61.33;23.15;;;;;;;;;;5038536;28;20025;-86
2021/09/04 01:07:38;;;;;;;66.43;22.63;;;;;;;;;;5020601;28;20087;-87
2021/09/04 01:10:04;;;;;;;58.70;22.67;;;;;;;;;;5038830;28;20029;-87
2021/09/04 01:12:31;;;;;;;59.97;23.65;;;;;;;;;;5021077;28;20485;-87
2021/09/04 01:14:57;;;;;;;58.63;24.20;;;;;;;;;;5038755;28;20040;-86
2021/09/04 01:17:24;;;;;;;59.92;24.08;;;;;;;;;;5047960;28;20029;-87
2021/09/04 01:19:49;;;;;;;65.43;23.90;;;;;;;;;;5036231;28;20091;-87
2021/09/04 01:22:14;;;;;;;62.10;23.05;;;;;;;;;;5038389;28;20034;-87
2021/09/04 01:24:40;;;;;;;69.28;23.83;;;;;;;;;;5020500;28;20064;-87
2021/09/04 01:27:06;;;;;;;58.70;23.90;;;;;;;;;;5037839;28;20037;-87
2021/09/04 01:29:31;;;;;;;57.22;23.10;;;;;;;;;;5037982;28;20032;-87
2021/09/04 01:31:56;;;;;;;62.50;24.58;;;;;;;;;;5037390;28;20078;-86
2021/09/04 01:34:22;;;;;;;63.75;23.75;;;;;;;;;;5020117;28;20039;-87
2021/09/04 01:36:47;;;;;;;58.97;23.40;;;;;;;;;;5037425;28;20033;-86
2021/09/04 01:39:13;;;;;;;48.70;22.13;;;;;;;;;;5020085;28;20031;-87
2021/09/04 01:41:40;;;;;;;65.00;23.35;;;;;;;;;;5019630;28;20124;-87
2021/09/04 01:44:06;;;;;;;58.65;24.05;;;;;;;;;;5037503;28;20032;-87
2021/09/04 01:46:34;;;;;;;63.95;23.95;;;;;;;;;;5037823;28;20029;-86
2021/09/04 01:48:59;;;;;;;57.05;23.13;;;;;;;;;;5019895;28;20030;-87
2021/09/04 01:51:25;;;;;;;50.40;22.10;;;;;;;;;;5019842;28;20082;-86
2021/09/04 01:53:50;;;;;;;62.95;23.77;;;;;;;;;;5040173;28;20100;-87
2021/09/04 01:56:15;;;;;;;55.15;20.70;;;;;;;;;;5018688;28;20022;-87
2021/09/04 01:58:41;;;;;;;57.97;21.13;;;;;;;;;;5020034;28;20044;-86
2021/09/04 02:01:07;;;;;;;56.33;21.70;;;;;;;;;;5019210;28;20025;-86
2021/09/04 02:03:34;;;;;;;59.78;21.85;;;;;;;;;;5036817;28;20025;-86
2021/09/04 02:05:59;;;;;;;50.00;20.75;;;;;;;;;;5019453;28;20029;-86
2021/09/04 02:08:24;;;;;;;51.10;21.48;;;;;;;;;;5019279;28;20032;-86
2021/09/04 02:10:50;;;;;;;55.10;19.25;;;;;;;;;;5019119;28;20026;-87
2021/09/04 02:13:15;;;;;;;52.33;19.73;;;;;;;;;;5020754;28;20021;-87
2021/09/04 02:15:41;;;;;;;52.20;19.60;;;;;;;;;;5019982;28;20025;-87
2021/09/04 02:18:06;;;;;;;49.22;19.77;;;;;;;;;;5019267;28;20484;-87
2021/09/04 02:20:31;;;;;;;51.65;20.52;;;;;;;;;;5019286;28;20051;-87
2021/09/04 02:22:57;;;;;;;59.33;20.75;;;;;;;;;;5036515;28;20025;-87
2021/09/04 02:25:22;;;;;;;47.58;19.95;;;;;;;;;;5019629;28;20022;-87
2021/09/04 02:27:48;;;;;;;47.80;19.25;;;;;;;;;;5019164;28;20178;-87
2021/09/04 02:30:14;;;;;;;61.17;22.02;;;;;;;;;;5019670;28;20059;-86
2021/09/04 02:32:40;;;;;;;50.67;19.63;;;;;;;;;;5018854;28;20108;-87
2021/09/04 02:35:06;;;;;;;52.58;20.17;;;;;;;;;;5018657;28;20482;-87
2021/09/04 02:37:32;;;;;;;57.28;20.55;;;;;;;;;;5018769;28;20018;-87
2021/09/04 02:39:58;;;;;;;48.22;19.92;;;;;;;;;;5018428;28;20032;-87
2021/09/04 02:42:23;;;;;;;50.65;19.90;;;;;;;;;;5018487;28;20473;-88
2021/09/04 02:44:48;;;;;;;43.95;18.83;;;;;;;;;;5018662;28;20033;-87
2021/09/04 02:47:14;;;;;;;52.53;20.48;;;;;;;;;;5018359;28;20436;-87
2021/09/04 02:49:39;;;;;;;52.50;20.45;;;;;;;;;;5019083;28;20037;-86
2021/09/04 02:52:05;;;;;;;48.33;21.05;;;;;;;;;;5035709;28;20101;-87
2021/09/04 02:54:30;;;;;;;46.80;20.25;;;;;;;;;;5035821;28;20017;-86
2021/09/04 02:56:56;;;;;;;48.75;20.50;;;;;;;;;;5018791;28;20044;-86
2021/09/04 02:59:22;;;;;;;51.15;20.88;;;;;;;;;;5018556;28;20467;-86
2021/09/04 03:01:47;;;;;;;46.03;19.92;;;;;;;;;;5018246;28;20064;-86
2021/09/04 03:04:13;;;;;;;46.58;21.80;;;;;;;;;;5034967;28;20025;-86
2021/09/04 03:06:38;;;;;;;47.58;20.45;;;;;;;;;;5019337;28;20032;-86
2021/09/04 03:09:03;;;;;;;47.80;20.65;;;;;;;;;;5021351;28;20357;-87
2021/09/04 03:11:29;;;;;;;51.85;20.55;;;;;;;;;;5018990;28;20563;-87
2021/09/04 03:13:54;;;;;;;49.45;20.00;;;;;;;;;;5018457;28;20022;-87
2021/09/04 03:16:19;;;;;;;64.65;21.20;;;;;;;;;;5018687;28;20018;-87
2021/09/04 03:18:45;;;;;;;49.00;21.80;;;;;;;;;;5018103;28;20025;-86
2021/09/04 03:21:10;;;;;;;56.38;21.88;;;;;;;;;;5018323;28;20494;-87
2021/09/04 03:23:36;;;;;;;52.08;21.23;;;;;;;;;;5017970;28;20027;-86
2021/09/04 03:26:02;;;;;;;53.35;21.20;;;;;;;;;;5018156;28;20083;-86
2021/09/04 03:28:27;;;;;;;45.65;20.27;;;;;;;;;;5018163;28;20017;-87
2021/09/04 03:30:53;;;;;;;56.08;20.58;;;;;;;;;;5035630;28;20473;-87
2021/09/04 03:33:18;;;;;;;46.00;20.60;;;;;;;;;;5035673;28;20025;-87
2021/09/04 03:35:43;;;;;;;47.85;19.88;;;;;;;;;;5020685;28;20017;-87
2021/09/04 03:38:09;;;;;;;41.22;19.33;;;;;;;;;;5018631;28;20120;-87
2021/09/04 03:40:34;;;;;;;49.72;20.30;;;;;;;;;;5017891;28;20077;-86
2021/09/04 03:43:00;;;;;;;53.70;20.45;;;;;;;;;;5018130;28;20030;-86
2021/09/04 03:45:25;;;;;;;59.72;21.58;;;;;;;;;;5018231;28;20025;-86
2021/09/04 03:47:50;;;;;;;50.30;20.48;;;;;;;;;;5036280;28;20021;-87
2021/09/04 03:50:16;;;;;;;51.47;20.63;;;;;;;;;;5019011;28;20034;-87
2021/09/04 03:52:41;;;;;;;51.10;21.35;;;;;;;;;;5018028;28;20014;-86
2021/09/04 03:55:07;;;;;;;53.33;20.90;;;;;;;;;;5018373;28;20032;-87
2021/09/04 03:57:32;;;;;;;61.03;22.17;;;;;;;;;;5017904;28;20029;-87
2021/09/04 03:59:57;;;;;;;51.50;21.85;;;;;;;;;;5017719;28;20021;-87
2021/09/04 04:02:23;;;;;;;54.40;20.20;;;;;;;;;;5017576;28;20049;-87
2021/09/04 04:04:48;;;;;;;53.58;21.25;;;;;;;;;;5017701;28;20030;-87
2021/09/04 04:07:14;;;;;;;54.00;20.88;;;;;;;;;;5034912;28;20033;-87
2021/09/04 04:09:39;;;;;;;54.17;21.52;;;;;;;;;;5017725;28;20040;-87
2021/09/04 04:12:05;;;;;;;53.95;21.70;;;;;;;;;;5017561;28;20072;-86
2021/09/04 04:14:30;;;;;;;51.28;21.58;;;;;;;;;;5034910;28;20034;-87
2021/09/04 04:16:55;;;;;;;54.47;20.45;;;;;;;;;;5035327;28;20061;-87
2021/09/04 04:19:21;;;;;;;49.50;20.58;;;;;;;;;;5020691;28;20389;-87
2021/09/04 04:21:46;;;;;;;52.28;19.80;;;;;;;;;;5021024;28;20026;-87
2021/09/04 04:24:12;;;;;;;44.28;20.30;;;;;;;;;;5021438;28;20068;-87
2021/09/04 04:26:37;;;;;;;46.95;19.38;;;;;;;;;;5038603;28;20465;-87
2021/09/04 04:29:02;;;;;;;50.03;19.55;;;;;;;;;;5021227;28;20033;-86
2021/09/04 04:31:27;;;;;;;49.05;19.67;;;;;;;;;;5039058;28;20484;-86
2021/09/04 04:33:53;;;;;;;44.85;19.38;;;;;;;;;;5028089;28;20033;-87
2021/09/04 04:36:18;;;;;;;43.83;18.88;;;;;;;;;;5024311;28;20032;-87
2021/09/04 04:38:43;;;;;;;44.00;18.08;;;;;;;;;;5038515;28;20395;-87
2021/09/04 04:41:09;;;;;;;45.22;18.40;;;;;;;;;;5039073;28;20037;-86
2021/09/04 04:43:34;;;;;;;50.25;17.52;;;;;;;;;;5038741;28;20025;-86
2021/09/04 04:45:59;;;;;;;40.55;17.17;;;;;;;;;;5021854;28;20445;-87
2021/09/04 04:48:25;;;;;;;43.78;17.42;;;;;;;;;;5021189;28;20029;-87
2021/09/04 04:50:50;;;;;;;45.47;17.67;;;;;;;;;;5020861;28;20029;-87
2021/09/04 04:53:15;;;;;;;44.33;15.93;;;;;;;;;;5020451;28;20029;-86
2021/09/04 04:55:41;;;;;;;46.60;18.98;;;;;;;;;;5038154;28;20041;-86
2021/09/04 04:58:06;;;;;;;39.97;18.05;;;;;;;;;;5020261;28;20041;-86
2021/09/04 05:00:31;;;;;;;39.10;17.10;;;;;;;;;;5020832;28;20396;-86
2021/09/04 05:02:57;;;;;;;42.92;16.63;;;;;;;;;;5020506;28;20025;-87
2021/09/04 05:05:22;;;;;;;49.13;17.98;;;;;;;;;;5038231;28;20116;-87
2021/09/04 05:07:48;;;;;;;42.25;17.15;;;;;;;;;;5020038;28;20033;-86
2021/09/04 05:10:13;;;;;;;41.22;18.40;;;;;;;;;;5020698;28;20022;-87
2021/09/04 05:12:38;;;;;;;56.05;18.50;;;;;;;;;;5021065;28;20071;-87
2021/09/04 05:15:04;;;;;;;41.33;17.88;;;;;;;;;;5020310;28;20087;-87
2021/09/04 05:17:30;;;;;;;44.33;17.80;;;;;;;;;;5021270;28;20040;-86
2021/09/04 05:19:55;;;;;;;50.50;18.20;;;;;;;;;;5023584;28;20116;-86
2021/09/04 05:22:20;;;;;;;39.33;16.10;;;;;;;;;;5041439;28;20033;-86
2021/09/04 05:24:46;;;;;;;46.83;18.00;;;;;;;;;;5022081;28;20026;-87
2021/09/04 05:27:11;;;;;;;37.03;17.48;;;;;;;;;;5022087;28;20028;-86
2021/09/04 05:29:36;;;;;;;44.47;17.60;;;;;;;;;;5021011;28;20056;-87
2021/09/04 05:32:02;;;;;;;44.97;17.58;;;;;;;;;;5020459;28;20338;-87
2021/09/04 05:34:28;;;;;;;49.88;17.08;;;;;;;;;;5020427;28;20025;-86
2021/09/04 05:36:53;;;;;;;35.30;16.48;;;;;;;;;;5020337;28;20029;-87
2021/09/04 05:39:18;;;;;;;35.53;16.23;;;;;;;;;;5019934;28;20029;-87
2021/09/04 05:41:44;;;;;;;36.92;15.75;;;;;;;;;;5020105;28;20431;-87
2021/09/04 05:44:09;;;;;;;39.70;16.15;;;;;;;;;;5018674;28;20030;-87
2021/09/04 05:46:34;;;;;;;36.17;13.82;;;;;;;;;;5038344;28;20481;-86
2021/09/04 05:48:59;;;;;;;37.30;15.55;;;;;;;;;;5020831;28;20522;-87
2021/09/04 05:51:25;;;;;;;34.45;15.02;;;;;;;;;;5038496;28;20028;-87
2021/09/04 05:53:50;;;;;;;35.80;15.13;;;;;;;;;;5021148;28;20025;-87
2021/09/04 05:56:15;;;;;;;36.22;15.30;;;;;;;;;;5038991;28;20435;-86
2021/09/04 05:58:41;;;;;;;41.95;15.68;;;;;;;;;;5020797;28;20076;-86
2021/09/04 06:01:06;;;;;;;34.78;15.75;;;;;;;;;;5021253;28;20025;-86
2021/09/04 06:03:32;;;;;;;36.20;15.57;;;;;;;;;;5030069;28;20029;-85
2021/09/04 06:05:57;;;;;;;41.58;16.33;;;;;;;;;;5050729;28;20041;-86
2021/09/04 06:08:26;;;;;;;46.05;16.00;;;;;;;;;;5021213;28;20036;-86
2021/09/04 06:10:52;;;;;;;36.83;16.00;;;;;;;;;;5019051;28;20032;-86
2021/09/04 06:13:18;;;;;;;41.70;16.90;;;;;;;;;;5019412;28;20395;-86
2021/09/04 06:15:44;;;;;;;43.75;16.85;;;;;;;;;;5037032;28;20026;-86
2021/09/04 06:18:10;;;;;;;42.03;16.10;;;;;;;;;;5036284;28;20037;-86
2021/09/04 06:20:36;;;;;;;39.38;16.40;;;;;;;;;;5020580;28;20481;-86
2021/09/04 06:23:02;;;;;;;41.35;16.67;;;;;;;;;;5019236;28;20113;-85
2021/09/04 06:25:27;;;;;;;41.42;16.83;;;;;;;;;;5039410;28;20026;-84
2021/09/04 06:27:53;;;;;;;49.97;18.80;;;;;;;;;;5037651;28;20030;-84
2021/09/04 06:30:18;;;;;;;40.28;16.13;;;;;;;;;;5020432;28;20021;-84
2021/09/04 06:32:43;;;;;;;47.08;20.05;;;;;;;;;;5019830;28;20484;-85
2021/09/04 06:35:09;;;;;;;43.45;17.40;;;;;;;;;;5019686;28;20546;-85
2021/09/04 06:37:35;;;;;;;43.85;16.38;;;;;;;;;;5020235;28;20056;-85
2021/09/04 06:40:00;;;;;;;54.90;19.30;;;;;;;;;;5019263;28;20029;-86
2021/09/04 06:42:25;;;;;;;47.08;16.92;;;;;;;;;;5019311;28;20037;-85
2021/09/04 06:44:51;;;;;;;38.72;17.02;;;;;;;;;;5037177;28;20049;-86
2021/09/04 06:47:16;;;;;;;42.40;17.60;;;;;;;;;;5019063;28;20017;-86
2021/09/04 06:49:41;;;;;;;37.53;16.50;;;;;;;;;;5019618;28;20025;-85
2021/09/04 06:52:06;;;;;;;41.85;16.38;;;;;;;;;;5036553;28;20021;-86
2021/09/04 06:54:32;;;;;;;38.88;16.50;;;;;;;;;;5020155;28;20026;-85
2021/09/04 06:56:58;;;;;;;50.10;16.63;;;;;;;;;;5037538;28;20219;-86
2021/09/04 06:59:23;;;;;;;40.53;16.17;;;;;;;;;;5037315;28;20025;-85
2021/09/04 07:01:51;;;;;;;51.38;18.20;;;;;;;;;;5022472;28;20083;-85
2021/09/04 07:04:16;;;;;;;39.05;17.55;;;;;;;;;;5019297;28;20017;-85
2021/09/04 07:06:43;;;;;;;39.00;16.13;;;;;;;;;;5018346;28;20079;-86
2021/09/04 07:09:08;;;;;;;36.65;14.60;;;;;;;;;;5036277;28;20026;-86
2021/09/04 07:11:33;;;;;;;46.78;16.65;;;;;;;;;;5036933;28;20071;-86
2021/09/04 07:13:59;;;;;;;40.38;15.75;;;;;;;;;;5018529;28;20032;-86
2021/09/04 07:16:24;;;;;;;42.42;16.40;;;;;;;;;;5018653;28;20175;-86
2021/09/04 07:18:50;;;;;;;39.03;17.05;;;;;;;;;;5018210;28;20499;-86
2021/09/04 07:21:15;;;;;;;35.85;17.45;;;;;;;;;;5035873;28;20087;-86
2021/09/04 07:23:40;;;;;;;40.47;17.17;;;;;;;;;;5018389;28;20025;-86
2021/09/04 07:26:06;;;;;;;46.88;17.63;;;;;;;;;;5036183;28;20029;-86
2021/09/04 07:28:31;;;;;;;40.17;16.67;;;;;;;;;;5018416;28;20028;-86
2021/09/04 07:30:59;;;;;;;40.88;17.25;;;;;;;;;;5018111;28;20120;-84
2021/09/04 07:33:24;;;;;;;44.65;17.73;;;;;;;;;;5037007;28;20369;-84
2021/09/04 07:35:49;;;;;;;36.22;15.38;;;;;;;;;;5020881;28;20036;-85
2021/09/04 07:38:15;;;;;;;40.38;17.05;;;;;;;;;;5018283;28;20051;-85
2021/09/04 07:40:40;;;;;;;39.45;16.00;;;;;;;;;;5017912;28;20029;-85
2021/09/04 07:43:08;;;;;;;39.33;16.33;;;;;;;;;;5017970;28;20025;-85
2021/09/04 07:45:35;;;;;;;41.78;17.15;;;;;;;;;;5017376;28;20481;-85
2021/09/04 07:48:00;;;;;;;38.40;15.15;;;;;;;;;;5035189;28;20098;-85
2021/09/04 07:50:25;;;;;;;37.08;16.60;;;;;;;;;;5035760;28;20461;-86
2021/09/04 07:52:51;;;;;;;48.28;17.17;;;;;;;;;;5020067;28;20052;-85
2021/09/04 07:55:17;;;;;;;39.58;16.67;;;;;;;;;;5021745;28;20224;-86
2021/09/04 07:57:42;;;;;;;37.10;15.68;;;;;;;;;;5043883;28;20030;-86
2021/09/04 08:00:08;;;;;;;32.80;14.48;;;;;;;;;;5023830;28;20480;-85
2021/09/04 08:02:34;;;;;;;38.58;16.13;;;;;;;;;;5021732;28;20519;-85
2021/09/04 08:04:59;;;;;;;45.28;16.95;;;;;;;;;;5022608;28;20033;-84
2021/09/04 08:07:24;;;;;;;37.50;16.08;;;;;;;;;;5022419;28;20025;-85
2021/09/04 08:09:50;;;;;;;35.47;15.85;;;;;;;;;;5039193;28;20029;-86
2021/09/04 08:12:15;;;;;;;39.50;16.83;;;;;;;;;;5021670;28;20122;-85
2021/09/04 08:14:40;;;;;;;34.80;15.10;;;;;;;;;;5021994;28;20033;-85
2021/09/04 08:17:06;;;;;;;33.05;14.88;;;;;;;;;;5021434;28;20116;-85
2021/09/04 08:19:31;;;;;;;31.45;14.70;;;;;;;;;;5021302;28;20391;-86
2021/09/04 08:21:56;;;;;;;36.83;14.05;;;;;;;;;;5021517;28;20097;-86
2021/09/04 08:24:22;;;;;;;36.95;14.18;;;;;;;;;;5038968;28;20025;-85
2021/09/04 08:26:47;;;;;;;32.88;14.70;;;;;;;;;;5020268;28;20009;-85
2021/09/04 08:29:12;;;;;;;29.67;13.30;;;;;;;;;;5021747;28;20396;-85
2021/09/04 08:31:38;;;;;;;32.00;15.75;;;;;;;;;;5020820;28;20396;-85
2021/09/04 08:34:03;;;;;;;33.25;14.45;;;;;;;;;;5038128;28;20082;-86
2021/09/04 08:36:30;;;;;;;37.53;13.88;;;;;;;;;;5021030;28;20474;-86
2021/09/04 08:38:55;;;;;;;33.58;13.27;;;;;;;;;;5020641;28;20477;-86
2021/09/04 08:41:20;;;;;;;29.60;13.57;;;;;;;;;;5020779;28;20059;-86
2021/09/04 08:43:46;;;;;;;33.05;13.98;;;;;;;;;;5020904;28;20033;-85
2021/09/04 08:46:15;;;;;;;35.58;14.52;;;;;;;;;;5020918;28;20029;-86
2021/09/04 08:48:42;;;;;;;27.17;13.00;;;;;;;;;;5021805;28;20057;-86
2021/09/04 08:51:07;;;;;;;31.45;13.40;;;;;;;;;;5021465;28;20025;-86
2021/09/04 08:53:33;;;;;;;26.42;13.07;;;;;;;;;;5021037;28;20018;-86
2021/09/04 08:55:58;;;;;;;31.52;13.82;;;;;;;;;;5021116;28;20041;-86
2021/09/04 08:58:23;;;;;;;31.40;13.98;;;;;;;;;;5038837;28;20437;-85
2021/09/04 09:00:49;;;;;;;35.33;13.05;;;;;;;;;;5020011;28;20540;-85
2021/09/04 09:03:25;;;;;;;31.83;12.73;;;;;;;;;;5019803;28;20396;-86
2021/09/04 09:05:51;;;;;;;37.95;13.80;;;;;;;;;;5020559;28;20026;-86
2021/09/04 09:08:22;;;;;;;26.80;12.98;;;;;;;;;;5023198;28;20036;-86
2021/09/04 09:10:48;;;;;;;29.70;13.77;;;;;;;;;;5020079;28;20400;-86
2021/09/04 09:13:21;;;;;;;31.67;14.13;;;;;;;;;;5019968;28;20032;-86
2021/09/04 09:15:46;;;;;;;35.05;14.18;;;;;;;;;;5019892;28;20029;-85
2021/09/04 09:18:14;;;;;;;32.40;13.93;;;;;;;;;;5037474;28;20102;-85
2021/09/04 09:20:46;;;;;;;33.42;13.55;;;;;;;;;;5037574;28;20052;-86
2021/09/04 09:23:18;;;;;;;30.60;15.07;;;;;;;;;;5019981;28;20480;-85
2021/09/04 09:25:46;;;;;;;35.75;15.55;;;;;;;;;;5019938;28;20455;-86
2021/09/04 09:28:14;;;;;;;38.60;15.93;;;;;;;;;;5020207;28;20034;-85
2021/09/04 09:30:49;;;;;;;39.15;16.80;;;;;;;;;;5037324;28;20025;-85
2021/09/04 09:33:17;;;;;;;30.73;15.75;;;;;;;;;;5019711;28;20036;-85
2021/09/04 09:35:45;;;;;;;35.30;16.63;;;;;;;;;;5019355;28;20021;-86
2021/09/04 09:38:17;;;;;;;37.63;16.63;;;;;;;;;;5019936;28;20065;-86
2021/09/04 09:40:43;;;;;;;42.58;17.08;;;;;;;;;;5037513;28;20517;-87
2021/09/04 09:43:28;;;;;;;35.03;16.52;;;;;;;;;;5037950;28;20082;-88
2021/09/04 09:45:56;;;;;;;30.80;15.55;;;;;;;;;;5037796;28;20017;-86
2021/09/04 09:48:29;;;;;;;36.17;17.38;;;;;;;;;;5036866;28;20021;-85
2021/09/04 09:50:58;;;;;;;50.22;20.33;;;;;;;;;;5021307;28;20025;-85
2021/09/04 09:53:24;;;;;;;42.63;20.38;;;;;;;;;;5024586;28;20076;-86
2021/09/04 09:55:51;;;;;;;40.20;20.15;;;;;;;;;;5021327;28;20030;-86
2021/09/04 09:58:20;;;;;;;43.72;20.20;;;;;;;;;;5019939;28;20021;-86
2021/09/04 10:00:46;;;;;;;42.95;19.38;;;;;;;;;;5019741;28;20032;-85
2021/09/04 10:03:13;;;;;;;46.05;21.20;;;;;;;;;;5020393;28;20029;-87
2021/09/04 10:05:39;;;;;;;45.35;21.50;;;;;;;;;;5039255;28;20068;-87
2021/09/04 10:08:05;;;;;;;39.20;20.73;;;;;;;;;;5019073;28;20124;-86
2021/09/04 10:10:35;;;;;;;45.35;21.45;;;;;;;;;;5018996;28;20025;-86
2021/09/04 10:13:01;;;;;;;51.00;22.95;;;;;;;;;;5036374;28;20032;-86
2021/09/04 10:15:30;;;;;;;46.25;22.92;;;;;;;;;;5017967;28;20116;-86
2021/09/04 10:17:58;;;;;;;43.60;21.23;;;;;;;;;;5009281;28;20041;-86
2021/09/04 10:20:25;;;;;;;44.08;23.98;;;;;;;;;;5017080;28;20026;-85
2021/09/04 10:22:55;;;;;;;50.40;22.50;;;;;;;;;;5015396;28;20448;-85
2021/09/04 10:25:20;;;;;;;43.38;21.52;;;;;;;;;;5036694;28;20488;-86
2021/09/04 10:27:48;;;;;;;46.00;23.00;;;;;;;;;;5018849;28;20021;-85
2021/09/04 10:30:28;;;;;;;44.30;23.58;;;;;;;;;;5022615;28;20034;-86
2021/09/04 10:33:05;;;;;;;42.28;22.02;;;;;;;;;;5018084;28;20018;-87
2021/09/04 10:35:40;;;;;;;44.20;22.35;;;;;;;;;;4998681;28;20151;-86
2021/09/04 10:38:27;;;;;;;40.40;21.20;;;;;;;;;;4999942;28;20501;-86
2021/09/04 10:41:13;;;;;;;36.15;20.50;;;;;;;;;;5011115;28;20048;-86
2021/09/04 10:43:47;;;;;;;41.50;20.75;;;;;;;;;;5036844;28;20076;-86
2021/09/04 10:46:15;;;;;;;48.83;22.45;;;;;;;;;;5018847;28;20025;-85
2021/09/04 10:48:42;;;;;;;44.90;22.15;;;;;;;;;;5018330;28;20041;-85
2021/09/04 10:51:11;;;;;;;41.22;21.83;;;;;;;;;;5035632;28;20212;-86
2021/09/04 10:53:49;;;;;;;36.08;21.50;;;;;;;;;;5018344;28;20091;-85
2021/09/04 10:56:25;;;;;;;44.10;21.45;;;;;;;;;;5036403;28;20108;-84
2021/09/04 10:58:52;;;;;;;42.60;22.52;;;;;;;;;;5020376;28;20108;-85
2021/09/04 11:01:25;;;;;;;45.03;21.90;;;;;;;;;;5016356;28;20505;-85
2021/09/04 11:03:55;;;;;;;40.78;21.90;;;;;;;;;;5017069;28;20028;-85
2021/09/04 11:06:22;;;;;;;39.22;21.10;;;;;;;;;;5032435;28;20032;-86
2021/09/04 11:08:49;;;;;;;45.72;22.40;;;;;;;;;;5022251;28;20467;-85
2021/09/04 11:11:33;;;;;;;47.83;21.45;;;;;;;;;;5025449;28;20487;-87
2021/09/04 11:14:00;;;;;;;41.03;21.08;;;;;;;;;;5018573;28;20404;-85
2021/09/04 11:16:33;;;;;;;35.10;19.20;;;;;;;;;;5019519;28;20026;-86
2021/09/04 11:19:07;;;;;;;41.47;20.38;;;;;;;;;;5016225;28;20038;-85
2021/09/04 11:21:45;;;;;;;41.05;19.48;;;;;;;;;;4998224;28;20444;-85
2021/09/04 11:24:12;;;;;;;38.17;19.92;;;;;;;;;;4998255;28;20116;-84
2021/09/04 11:26:48;;;;;;;36.13;18.98;;;;;;;;;;5015566;28;20029;-85
2021/09/04 11:29:14;;;;;;;37.63;18.48;;;;;;;;;;5020677;28;20441;-85
2021/09/04 11:31:55;;;;;;;32.45;18.08;;;;;;;;;;5018720;28;20111;-86
2021/09/04 11:34:46;;;;;;;35.42;17.60;;;;;;;;;;5017922;28;20026;-86
2021/09/04 11:37:14;;;;;;;39.60;17.13;;;;;;;;;;4999218;28;20164;-86
2021/09/04 11:39:39;;;;;;;35.13;17.75;;;;;;;;;;5014484;28;20022;-86
2021/09/04 11:42:05;;;;;;;39.10;18.98;;;;;;;;;;5013835;28;20504;-85
2021/09/04 11:44:30;;;;;;;35.40;18.83;;;;;;;;;;5014787;28;20026;-86
2021/09/04 11:46:55;;;;;;;40.13;19.05;;;;;;;;;;5018224;28;20025;-85
2021/09/04 11:49:21;;;;;;;35.72;17.15;;;;;;;;;;5019846;28;20021;-85
2021/09/04 11:51:56;;;;;;;33.38;17.92;;;;;;;;;;5017959;28;20075;-86
2021/09/04 11:54:27;;;;;;;32.90;16.08;;;;;;;;;;5036583;28;20037;-85
2021/09/04 11:56:53;;;;;;;35.60;15.93;;;;;;;;;;5036453;28;20456;-85
2021/09/04 11:59:18;;;;;;;33.28;16.00;;;;;;;;;;5018833;28;20025;-85
2021/09/04 12:01:43;;;;;;;29.85;15.40;;;;;;;;;;5020398;28;20544;-85
2021/09/04 12:04:09;;;;;;;31.35;15.32;;;;;;;;;;5045628;28;20016;-85
2021/09/04 12:06:35;;;;;;;29.85;15.63;;;;;;;;;;5040267;28;20083;-86
2021/09/04 12:09:00;;;;;;;35.28;16.73;;;;;;;;;;5021233;28;20460;-86
2021/09/04 12:11:26;;;;;;;32.58;16.65;;;;;;;;;;5008401;28;20033;-85
2021/09/04 12:13:52;;;;;;;36.85;17.17;;;;;;;;;;4998672;28;20482;-85
2021/09/04 12:16:18;;;;;;;38.38;16.58;;;;;;;;;;4998822;28;20057;-83
2021/09/04 12:18:45;;;;;;;29.50;16.00;;;;;;;;;;4999363;28;20469;-82
2021/09/04 12:21:28;;;;;;;29.58;15.02;;;;;;;;;;5023725;28;20040;-82
2021/09/04 12:24:01;;;;;;;28.70;14.68;;;;;;;;;;5036298;28;20025;-84
2021/09/04 12:26:27;;;;;;;33.33;15.73;;;;;;;;;;5019169;28;20426;-84
2021/09/04 12:29:06;;;;;;;28.92;15.20;;;;;;;;;;5017621;28;20029;-84
2021/09/04 12:31:32;;;;;;;23.40;12.55;;;;;;;;;;5024848;28;20030;-84
2021/09/04 12:33:58;;;;;;;29.98;14.30;;;;;;;;;;5027229;28;20408;-86
2021/09/04 12:36:26;;;;;;;32.40;16.13;;;;;;;;;;5035036;28;20037;-84
2021/09/04 12:38:58;;;;;;;34.80;16.10;;;;;;;;;;5035871;28;20047;-85
2021/09/04 12:41:34;;;;;;;26.67;15.30;;;;;;;;;;5038762;28;20099;-84
2021/09/04 12:44:07;;;;;;;31.42;15.07;;;;;;;;;;5020786;28;20184;-84
2021/09/04 12:46:49;;;;;;;29.48;15.27;;;;;;;;;;5038605;28;20392;-84
2021/09/04 12:49:20;;;;;;;28.98;15.50;;;;;;;;;;5038978;28;20022;-85
2021/09/04 12:52:03;;;;;;;28.85;14.25;;;;;;;;;;5014936;28;20022;-84
2021/09/04 12:54:34;;;;;;;30.95;14.88;;;;;;;;;;5001269;28;20025;-84
2021/09/04 12:57:11;;;;;;;30.52;15.38;;;;;;;;;;5019263;28;20036;-85
2021/09/04 12:59:45;;;;;;;30.80;14.77;;;;;;;;;;5002750;28;20124;-84
2021/09/04 13:02:11;;;;;;;31.10;15.88;;;;;;;;;;5020524;28;20025;-85
2021/09/04 13:04:37;;;;;;;32.00;15.82;;;;;;;;;;5019954;28;20115;-85
2021/09/04 13:07:03;;;;;;;31.55;13.68;;;;;;;;;;5021516;28;20052;-85
2021/09/04 13:09:30;;;;;;;33.67;15.40;;;;;;;;;;5037099;28;20064;-84
2021/09/04 13:11:56;;;;;;;31.00;17.17;;;;;;;;;;5039476;28;20100;-85
2021/09/04 13:14:21;;;;;;;31.20;13.85;;;;;;;;;;5020621;28;20056;-84
2021/09/04 13:17:04;;;;;;;28.13;15.25;;;;;;;;;;5030510;28;20092;-83
2021/09/04 13:19:30;;;;;;;27.30;14.25;;;;;;;;;;5010489;28;20520;-84
2021/09/04 13:21:55;;;;;;;31.17;16.05;;;;;;;;;;5004037;28;20029;-83
2021/09/04 13:24:21;;;;;;;33.40;16.15;;;;;;;;;;5019262;28;20037;-83
2021/09/04 13:26:46;;;;;;;30.67;15.57;;;;;;;;;;5001840;28;20030;-83
2021/09/04 13:29:12;;;;;;;31.10;14.55;;;;;;;;;;5014438;28;20035;-84
2021/09/04 13:31:43;;;;;;;28.73;15.43;;;;;;;;;;5020619;28;20514;-85
2021/09/04 13:34:08;;;;;;;33.65;16.65;;;;;;;;;;5020473;28;20053;-84
2021/09/04 13:36:34;;;;;;;33.47;15.05;;;;;;;;;;5038345;28;20028;-84
2021/09/04 13:38:59;;;;;;;30.98;15.05;;;;;;;;;;5025768;28;20512;-84
2021/09/04 13:41:24;;;;;;;33.65;16.00;;;;;;;;;;5000665;28;20493;-84
2021/09/04 13:43:49;;;;;;;34.08;16.23;;;;;;;;;;5001031;28;20030;-83
2021/09/04 13:46:15;;;;;;;29.98;15.00;;;;;;;;;;5000899;28;20401;-85
2021/09/04 13:48:40;;;;;;;28.83;14.73;;;;;;;;;;5027097;28;20021;-84
2021/09/04 13:51:05;;;;;;;26.30;15.13;;;;;;;;;;5018801;28;20029;-84
2021/09/04 13:53:31;;;;;;;32.58;15.00;;;;;;;;;;5019703;28;20018;-84
2021/09/04 13:55:56;;;;;;;32.92;15.13;;;;;;;;;;5041216;28;20029;-85
2021/09/04 13:58:22;;;;;;;29.23;13.88;;;;;;;;;;5020247;28;20057;-84
2021/09/04 14:00:47;;;;;;;28.83;14.63;;;;;;;;;;5037652;28;20037;-84
2021/09/04 14:03:12;;;;;;;31.90;13.80;;;;;;;;;;5019492;28;20141;-84
2021/09/04 14:05:38;;;;;;;31.02;15.48;;;;;;;;;;5019762;28;20049;-84
2021/09/04 14:08:03;;;;;;;31.48;14.98;;;;;;;;;;5018553;28;20078;-83
2021/09/04 14:10:29;;;;;;;33.55;15.10;;;;;;;;;;5019370;28;20025;-85
2021/09/04 14:12:54;;;;;;;35.42;13.60;;;;;;;;;;5019949;28;20021;-84
2021/09/04 14:15:19;;;;;;;28.00;15.15;;;;;;;;;;5020132;28;20041;-85